sensor_id;sensor_type;location;lat;lon;timestamp;P1;durP1;ratioP1;P2;durP2;ratioP2
31638;SDS011;18248;51.522;7.020;2023-01-29T00:00:29;86.18;;;41.92;;
31638;SDS011;18248;51.522;7.020;2023-01-29T00:03:28;86.65;;;41.85;;
31638;SDS011;18248;51.522;7.020;2023-01-29T00:06:26;104.43;;;48.40;;
31638;SDS011;18248;51.522;7.020;2023-01-29T00:09:26;89.22;;;43.47;;
31638;SDS011;18248;51.522;7.020;2023-01-29T00:12:25;86.10;;;39.88;;
31638;SDS011;18248;51.522;7.020;2023-01-29T00:15:24;131.40;;;58.42;;
31638;SDS011;18248;51.522;7.020;2023-01-29T00:18:23;94.45;;;45.40;;
31638;SDS011;18248;51.522;7.020;2023-01-29T00:21:22;92.10;;;42.63;;
31638;SDS011;18248;51.522;7.020;2023-01-29T00:24:21;103.65;;;48.55;;
31638;SDS011;18248;51.522;7.020;2023-01-29T00:27:20;91.32;;;43.25;;
31638;SDS011;18248;51.522;7.020;2023-01-29T00:30:19;96.60;;;45.70;;
31638;SDS011;18248;51.522;7.020;2023-01-29T00:33:18;89.78;;;41.65;;
31638;SDS011;18248;51.522;7.020;2023-01-29T00:36:17;82.72;;;40.17;;
31638;SDS011;18248;51.522;7.020;2023-01-29T00:39:16;90.25;;;42.80;;
31638;SDS011;18248;51.522;7.020;2023-01-29T00:42:21;97.25;;;45.17;;
31638;SDS011;18248;51.522;7.020;2023-01-29T00:45:38;81.53;;;39.00;;
31638;SDS011;18248;51.522;7.020;2023-01-29T00:48:36;81.57;;;40.10;;
31638;SDS011;18248;51.522;7.020;2023-01-29T00:51:36;84.38;;;38.75;;
31638;SDS011;18248;51.522;7.020;2023-01-29T00:54:35;80.20;;;38.15;;
31638;SDS011;18248;51.522;7.020;2023-01-29T00:57:34;77.03;;;38.35;;
31638;SDS011;18248;51.522;7.020;2023-01-29T01:00:33;88.35;;;40.60;;
31638;SDS011;18248;51.522;7.020;2023-01-29T01:03:32;85.28;;;42.90;;
31638;SDS011;18248;51.522;7.020;2023-01-29T01:06:39;77.78;;;39.22;;
31638;SDS011;18248;51.522;7.020;2023-01-29T01:09:40;87.10;;;40.03;;
31638;SDS011;18248;51.522;7.020;2023-01-29T01:12:58;93.30;;;43.83;;
31638;SDS011;18248;51.522;7.020;2023-01-29T01:15:58;81.57;;;38.70;;
31638;SDS011;18248;51.522;7.020;2023-01-29T01:18:57;96.15;;;45.97;;
31638;SDS011;18248;51.522;7.020;2023-01-29T01:21:56;97.93;;;46.10;;
31638;SDS011;18248;51.522;7.020;2023-01-29T01:24:54;100.18;;;45.22;;
31638;SDS011;18248;51.522;7.020;2023-01-29T01:27:53;93.00;;;42.20;;
31638;SDS011;18248;51.522;7.020;2023-01-29T01:30:53;81.68;;;38.40;;
31638;SDS011;18248;51.522;7.020;2023-01-29T01:33:51;93.45;;;42.05;;
31638;SDS011;18248;51.522;7.020;2023-01-29T01:36:52;92.28;;;42.25;;
31638;SDS011;18248;51.522;7.020;2023-01-29T01:39:51;87.90;;;41.40;;
31638;SDS011;18248;51.522;7.020;2023-01-29T01:42:55;83.13;;;37.38;;
31638;SDS011;18248;51.522;7.020;2023-01-29T01:45:55;95.45;;;43.90;;
31638;SDS011;18248;51.522;7.020;2023-01-29T01:48:55;81.18;;;38.90;;
31638;SDS011;18248;51.522;7.020;2023-01-29T01:52:09;77.65;;;37.40;;
31638;SDS011;18248;51.522;7.020;2023-01-29T01:55:11;81.90;;;38.15;;
31638;SDS011;18248;51.522;7.020;2023-01-29T01:58:12;79.93;;;38.70;;
31638;SDS011;18248;51.522;7.020;2023-01-29T02:01:19;79.47;;;36.45;;
31638;SDS011;18248;51.522;7.020;2023-01-29T02:04:27;79.07;;;36.67;;
31638;SDS011;18248;51.522;7.020;2023-01-29T02:07:45;74.85;;;35.13;;
31638;SDS011;18248;51.522;7.020;2023-01-29T02:11:04;82.00;;;37.25;;
31638;SDS011;18248;51.522;7.020;2023-01-29T02:14:03;88.32;;;39.03;;
31638;SDS011;18248;51.522;7.020;2023-01-29T02:17:02;92.43;;;44.50;;
31638;SDS011;18248;51.522;7.020;2023-01-29T02:20:17;81.13;;;37.45;;
31638;SDS011;18248;51.522;7.020;2023-01-29T02:23:42;81.15;;;37.60;;
31638;SDS011;18248;51.522;7.020;2023-01-29T02:30:25;103.43;;;48.97;;
31638;SDS011;18248;51.522;7.020;2023-01-29T02:37:04;85.72;;;38.78;;
31638;SDS011;18248;51.522;7.020;2023-01-29T02:40:08;79.78;;;37.72;;
31638;SDS011;18248;51.522;7.020;2023-01-29T02:49:48;90.20;;;42.15;;
31638;SDS011;18248;51.522;7.020;2023-01-29T02:53:03;98.72;;;45.40;;
31638;SDS011;18248;51.522;7.020;2023-01-29T02:59:37;111.28;;;47.45;;
31638;SDS011;18248;51.522;7.020;2023-01-29T03:03:00;91.28;;;40.35;;
31638;SDS011;18248;51.522;7.020;2023-01-29T03:06:06;92.40;;;42.97;;
31638;SDS011;18248;51.522;7.020;2023-01-29T03:09:25;90.10;;;41.80;;
31638;SDS011;18248;51.522;7.020;2023-01-29T03:12:29;99.95;;;45.50;;
31638;SDS011;18248;51.522;7.020;2023-01-29T03:15:33;90.07;;;41.38;;
31638;SDS011;18248;51.522;7.020;2023-01-29T03:18:51;96.28;;;43.92;;
31638;SDS011;18248;51.522;7.020;2023-01-29T03:21:55;97.15;;;44.25;;
31638;SDS011;18248;51.522;7.020;2023-01-29T03:24:56;99.28;;;44.72;;
31638;SDS011;18248;51.522;7.020;2023-01-29T03:28:16;94.28;;;41.75;;
31638;SDS011;18248;51.522;7.020;2023-01-29T03:31:33;93.05;;;43.15;;
31638;SDS011;18248;51.522;7.020;2023-01-29T03:34:53;90.35;;;39.65;;
31638;SDS011;18248;51.522;7.020;2023-01-29T03:37:55;83.85;;;37.90;;
31638;SDS011;18248;51.522;7.020;2023-01-29T03:41:04;81.95;;;37.35;;
31638;SDS011;18248;51.522;7.020;2023-01-29T03:50:41;82.47;;;38.60;;
31638;SDS011;18248;51.522;7.020;2023-01-29T04:00:58;83.15;;;38.80;;
31638;SDS011;18248;51.522;7.020;2023-01-29T04:04:08;92.53;;;43.55;;
31638;SDS011;18248;51.522;7.020;2023-01-29T04:07:15;82.03;;;38.25;;
31638;SDS011;18248;51.522;7.020;2023-01-29T04:10:21;86.90;;;41.08;;
31638;SDS011;18248;51.522;7.020;2023-01-29T04:13:24;91.93;;;42.17;;
31638;SDS011;18248;51.522;7.020;2023-01-29T04:16:37;95.93;;;43.50;;
31638;SDS011;18248;51.522;7.020;2023-01-29T04:19:39;89.80;;;42.25;;
31638;SDS011;18248;51.522;7.020;2023-01-29T04:22:38;88.15;;;42.80;;
31638;SDS011;18248;51.522;7.020;2023-01-29T04:25:41;90.63;;;42.00;;
31638;SDS011;18248;51.522;7.020;2023-01-29T04:28:53;86.97;;;40.88;;
31638;SDS011;18248;51.522;7.020;2023-01-29T04:35:10;93.07;;;42.53;;
31638;SDS011;18248;51.522;7.020;2023-01-29T04:41:48;80.45;;;38.63;;
31638;SDS011;18248;51.522;7.020;2023-01-29T04:55:20;94.93;;;42.38;;
31638;SDS011;18248;51.522;7.020;2023-01-29T04:58:44;103.35;;;44.72;;
31638;SDS011;18248;51.522;7.020;2023-01-29T05:01:52;79.53;;;39.42;;
31638;SDS011;18248;51.522;7.020;2023-01-29T05:04:51;87.60;;;41.20;;
31638;SDS011;18248;51.522;7.020;2023-01-29T05:07:50;98.38;;;42.20;;
31638;SDS011;18248;51.522;7.020;2023-01-29T05:10:50;86.95;;;41.35;;
31638;SDS011;18248;51.522;7.020;2023-01-29T05:13:50;90.80;;;42.20;;
31638;SDS011;18248;51.522;7.020;2023-01-29T05:16:50;83.13;;;39.63;;
31638;SDS011;18248;51.522;7.020;2023-01-29T05:19:50;90.88;;;42.40;;
31638;SDS011;18248;51.522;7.020;2023-01-29T05:22:49;88.93;;;40.50;;
31638;SDS011;18248;51.522;7.020;2023-01-29T05:25:48;87.40;;;39.53;;
31638;SDS011;18248;51.522;7.020;2023-01-29T05:28:48;95.25;;;43.30;;
31638;SDS011;18248;51.522;7.020;2023-01-29T05:31:48;80.28;;;38.10;;
31638;SDS011;18248;51.522;7.020;2023-01-29T05:34:48;89.00;;;39.97;;
31638;SDS011;18248;51.522;7.020;2023-01-29T05:37:46;86.97;;;38.95;;
31638;SDS011;18248;51.522;7.020;2023-01-29T05:40:45;83.00;;;38.80;;
31638;SDS011;18248;51.522;7.020;2023-01-29T05:43:43;82.78;;;40.83;;
31638;SDS011;18248;51.522;7.020;2023-01-29T05:46:43;87.70;;;42.03;;
31638;SDS011;18248;51.522;7.020;2023-01-29T05:49:43;90.13;;;42.05;;
31638;SDS011;18248;51.522;7.020;2023-01-29T05:52:41;87.97;;;41.72;;
31638;SDS011;18248;51.522;7.020;2023-01-29T05:55:43;88.85;;;40.40;;
31638;SDS011;18248;51.522;7.020;2023-01-29T05:58:43;86.50;;;40.85;;
31638;SDS011;18248;51.522;7.020;2023-01-29T06:01:41;81.38;;;38.58;;
31638;SDS011;18248;51.522;7.020;2023-01-29T06:04:40;79.80;;;37.67;;
31638;SDS011;18248;51.522;7.020;2023-01-29T06:07:38;76.60;;;36.00;;
31638;SDS011;18248;51.522;7.020;2023-01-29T06:10:42;70.88;;;34.75;;
31638;SDS011;18248;51.522;7.020;2023-01-29T06:13:40;88.60;;;39.92;;
31638;SDS011;18248;51.522;7.020;2023-01-29T06:16:39;85.03;;;38.22;;
31638;SDS011;18248;51.522;7.020;2023-01-29T06:19:37;81.70;;;38.72;;
31638;SDS011;18248;51.522;7.020;2023-01-29T06:22:36;84.10;;;39.55;;
31638;SDS011;18248;51.522;7.020;2023-01-29T06:25:34;79.20;;;37.53;;
31638;SDS011;18248;51.522;7.020;2023-01-29T06:28:33;86.63;;;40.95;;
31638;SDS011;18248;51.522;7.020;2023-01-29T06:31:31;84.40;;;40.35;;
31638;SDS011;18248;51.522;7.020;2023-01-29T06:34:31;90.28;;;40.85;;
31638;SDS011;18248;51.522;7.020;2023-01-29T06:37:30;82.03;;;37.75;;
31638;SDS011;18248;51.522;7.020;2023-01-29T06:40:28;87.03;;;41.08;;
31638;SDS011;18248;51.522;7.020;2023-01-29T06:43:27;82.53;;;41.08;;
31638;SDS011;18248;51.522;7.020;2023-01-29T06:46:25;91.60;;;43.08;;
31638;SDS011;18248;51.522;7.020;2023-01-29T06:49:24;81.68;;;39.15;;
31638;SDS011;18248;51.522;7.020;2023-01-29T06:52:22;92.85;;;42.05;;
31638;SDS011;18248;51.522;7.020;2023-01-29T06:55:25;78.97;;;37.27;;
31638;SDS011;18248;51.522;7.020;2023-01-29T06:58:24;81.88;;;39.47;;
31638;SDS011;18248;51.522;7.020;2023-01-29T07:01:22;84.55;;;41.95;;
31638;SDS011;18248;51.522;7.020;2023-01-29T07:04:21;86.72;;;41.10;;
31638;SDS011;18248;51.522;7.020;2023-01-29T07:07:19;80.00;;;39.17;;
31638;SDS011;18248;51.522;7.020;2023-01-29T07:10:18;84.28;;;40.38;;
31638;SDS011;18248;51.522;7.020;2023-01-29T07:13:17;75.97;;;37.33;;
31638;SDS011;18248;51.522;7.020;2023-01-29T07:16:15;92.85;;;42.55;;
31638;SDS011;18248;51.522;7.020;2023-01-29T07:19:16;86.90;;;40.78;;
31638;SDS011;18248;51.522;7.020;2023-01-29T07:22:14;78.57;;;39.38;;
31638;SDS011;18248;51.522;7.020;2023-01-29T07:25:13;95.50;;;45.85;;
31638;SDS011;18248;51.522;7.020;2023-01-29T07:28:11;96.18;;;44.60;;
31638;SDS011;18248;51.522;7.020;2023-01-29T07:31:10;94.30;;;44.30;;
31638;SDS011;18248;51.522;7.020;2023-01-29T07:34:10;94.97;;;45.28;;
31638;SDS011;18248;51.522;7.020;2023-01-29T07:37:10;89.68;;;43.25;;
31638;SDS011;18248;51.522;7.020;2023-01-29T07:40:08;80.18;;;38.95;;
31638;SDS011;18248;51.522;7.020;2023-01-29T07:43:08;87.40;;;43.83;;
31638;SDS011;18248;51.522;7.020;2023-01-29T07:46:07;83.05;;;41.33;;
31638;SDS011;18248;51.522;7.020;2023-01-29T07:49:06;87.78;;;41.58;;
31638;SDS011;18248;51.522;7.020;2023-01-29T07:52:05;89.03;;;41.95;;
31638;SDS011;18248;51.522;7.020;2023-01-29T07:55:04;87.68;;;41.55;;
31638;SDS011;18248;51.522;7.020;2023-01-29T07:58:02;95.35;;;42.65;;
31638;SDS011;18248;51.522;7.020;2023-01-29T08:01:05;84.43;;;41.65;;
31638;SDS011;18248;51.522;7.020;2023-01-29T08:04:04;94.85;;;42.90;;
31638;SDS011;18248;51.522;7.020;2023-01-29T08:07:03;93.15;;;42.55;;
31638;SDS011;18248;51.522;7.020;2023-01-29T08:10:02;91.30;;;43.92;;
31638;SDS011;18248;51.522;7.020;2023-01-29T08:13:02;86.68;;;40.67;;
31638;SDS011;18248;51.522;7.020;2023-01-29T08:16:02;93.93;;;44.10;;
31638;SDS011;18248;51.522;7.020;2023-01-29T08:19:01;93.05;;;43.92;;
31638;SDS011;18248;51.522;7.020;2023-01-29T08:22:00;90.68;;;42.80;;
31638;SDS011;18248;51.522;7.020;2023-01-29T08:24:58;93.80;;;45.75;;
31638;SDS011;18248;51.522;7.020;2023-01-29T08:27:57;91.93;;;44.13;;
31638;SDS011;18248;51.522;7.020;2023-01-29T08:30:57;88.43;;;43.75;;
31638;SDS011;18248;51.522;7.020;2023-01-29T08:33:56;90.25;;;43.22;;
31638;SDS011;18248;51.522;7.020;2023-01-29T08:36:55;79.65;;;38.80;;
31638;SDS011;18248;51.522;7.020;2023-01-29T08:39:54;94.25;;;43.35;;
31638;SDS011;18248;51.522;7.020;2023-01-29T08:43:03;87.22;;;43.42;;
31638;SDS011;18248;51.522;7.020;2023-01-29T08:46:03;94.70;;;44.08;;
31638;SDS011;18248;51.522;7.020;2023-01-29T08:49:02;94.07;;;43.67;;
31638;SDS011;18248;51.522;7.020;2023-01-29T08:52:01;95.93;;;44.45;;
31638;SDS011;18248;51.522;7.020;2023-01-29T08:54:59;92.95;;;42.58;;
31638;SDS011;18248;51.522;7.020;2023-01-29T08:57:58;82.13;;;41.22;;
31638;SDS011;18248;51.522;7.020;2023-01-29T09:01:03;91.60;;;42.47;;
31638;SDS011;18248;51.522;7.020;2023-01-29T09:04:04;90.57;;;41.83;;
31638;SDS011;18248;51.522;7.020;2023-01-29T09:07:03;97.85;;;43.75;;
31638;SDS011;18248;51.522;7.020;2023-01-29T09:10:02;87.95;;;40.78;;
31638;SDS011;18248;51.522;7.020;2023-01-29T09:13:02;85.80;;;41.30;;
31638;SDS011;18248;51.522;7.020;2023-01-29T09:16:02;90.00;;;41.72;;
31638;SDS011;18248;51.522;7.020;2023-01-29T09:19:01;88.80;;;43.25;;
31638;SDS011;18248;51.522;7.020;2023-01-29T09:21:59;93.70;;;44.95;;
31638;SDS011;18248;51.522;7.020;2023-01-29T09:24:58;98.22;;;44.83;;
31638;SDS011;18248;51.522;7.020;2023-01-29T09:27:56;88.35;;;41.95;;
31638;SDS011;18248;51.522;7.020;2023-01-29T09:30:55;89.97;;;44.60;;
31638;SDS011;18248;51.522;7.020;2023-01-29T09:33:53;95.40;;;43.70;;
31638;SDS011;18248;51.522;7.020;2023-01-29T09:36:52;89.18;;;41.95;;
31638;SDS011;18248;51.522;7.020;2023-01-29T09:39:50;98.28;;;43.67;;
31638;SDS011;18248;51.522;7.020;2023-01-29T09:42:50;94.45;;;42.22;;
31638;SDS011;18248;51.522;7.020;2023-01-29T09:46:14;87.93;;;41.35;;
31638;SDS011;18248;51.522;7.020;2023-01-29T09:52:44;81.75;;;39.85;;
31638;SDS011;18248;51.522;7.020;2023-01-29T09:56:09;86.77;;;41.27;;
31638;SDS011;18248;51.522;7.020;2023-01-29T09:59:15;91.47;;;42.03;;
31638;SDS011;18248;51.522;7.020;2023-01-29T10:05:30;87.10;;;42.40;;
31638;SDS011;18248;51.522;7.020;2023-01-29T10:26:02;86.93;;;40.13;;
31638;SDS011;18248;51.522;7.020;2023-01-29T10:29:00;84.28;;;41.28;;
31638;SDS011;18248;51.522;7.020;2023-01-29T10:32:03;92.28;;;41.60;;
31638;SDS011;18248;51.522;7.020;2023-01-29T10:35:03;80.53;;;40.33;;
31638;SDS011;18248;51.522;7.020;2023-01-29T11:01:33;81.68;;;40.22;;
31638;SDS011;18248;51.522;7.020;2023-01-29T11:04:32;83.78;;;40.72;;
31638;SDS011;18248;51.522;7.020;2023-01-29T11:07:32;80.15;;;39.78;;
31638;SDS011;18248;51.522;7.020;2023-01-29T11:10:31;81.00;;;40.45;;
31638;SDS011;18248;51.522;7.020;2023-01-29T11:13:39;85.13;;;39.70;;
31638;SDS011;18248;51.522;7.020;2023-01-29T11:16:49;83.88;;;41.22;;
31638;SDS011;18248;51.522;7.020;2023-01-29T11:19:49;83.07;;;40.58;;
31638;SDS011;18248;51.522;7.020;2023-01-29T11:22:52;85.63;;;41.40;;
31638;SDS011;18248;51.522;7.020;2023-01-29T11:25:53;84.70;;;40.00;;
31638;SDS011;18248;51.522;7.020;2023-01-29T11:28:52;83.63;;;41.28;;
31638;SDS011;18248;51.522;7.020;2023-01-29T11:31:51;80.53;;;39.55;;
31638;SDS011;18248;51.522;7.020;2023-01-29T11:35:03;82.60;;;41.22;;
31638;SDS011;18248;51.522;7.020;2023-01-29T11:41:25;81.20;;;39.72;;
31638;SDS011;18248;51.522;7.020;2023-01-29T11:44:27;81.70;;;39.45;;
31638;SDS011;18248;51.522;7.020;2023-01-29T11:47:39;85.28;;;40.30;;
31638;SDS011;18248;51.522;7.020;2023-01-29T11:50:38;79.63;;;40.30;;
31638;SDS011;18248;51.522;7.020;2023-01-29T11:53:43;85.47;;;41.50;;
31638;SDS011;18248;51.522;7.020;2023-01-29T11:56:46;78.95;;;40.83;;
31638;SDS011;18248;51.522;7.020;2023-01-29T11:59:46;78.45;;;37.97;;
31638;SDS011;18248;51.522;7.020;2023-01-29T12:02:51;78.03;;;37.85;;
31638;SDS011;18248;51.522;7.020;2023-01-29T12:06:40;87.35;;;39.75;;
31638;SDS011;18248;51.522;7.020;2023-01-29T12:09:39;77.90;;;38.47;;
31638;SDS011;18248;51.522;7.020;2023-01-29T12:12:40;79.35;;;39.75;;
31638;SDS011;18248;51.522;7.020;2023-01-29T12:15:40;75.80;;;38.25;;
31638;SDS011;18248;51.522;7.020;2023-01-29T12:18:40;76.95;;;38.17;;
31638;SDS011;18248;51.522;7.020;2023-01-29T12:22:17;75.40;;;39.47;;
31638;SDS011;18248;51.522;7.020;2023-01-29T12:25:17;84.75;;;40.92;;
31638;SDS011;18248;51.522;7.020;2023-01-29T12:28:21;79.90;;;39.30;;
31638;SDS011;18248;51.522;7.020;2023-01-29T12:31:39;87.15;;;41.90;;
31638;SDS011;18248;51.522;7.020;2023-01-29T12:35:16;78.35;;;38.55;;
31638;SDS011;18248;51.522;7.020;2023-01-29T12:38:30;76.20;;;38.83;;
31638;SDS011;18248;51.522;7.020;2023-01-29T12:41:33;81.32;;;40.47;;
31638;SDS011;18248;51.522;7.020;2023-01-29T12:44:34;82.60;;;42.25;;
31638;SDS011;18248;51.522;7.020;2023-01-29T12:47:43;83.53;;;40.95;;
31638;SDS011;18248;51.522;7.020;2023-01-29T12:50:45;72.90;;;38.05;;
31638;SDS011;18248;51.522;7.020;2023-01-29T12:53:55;80.20;;;41.22;;
31638;SDS011;18248;51.522;7.020;2023-01-29T12:56:59;85.72;;;41.72;;
31638;SDS011;18248;51.522;7.020;2023-01-29T13:00:03;85.80;;;42.65;;
31638;SDS011;18248;51.522;7.020;2023-01-29T13:03:25;75.60;;;37.65;;
31638;SDS011;18248;51.522;7.020;2023-01-29T13:06:30;85.05;;;41.90;;
31638;SDS011;18248;51.522;7.020;2023-01-29T13:09:33;77.47;;;38.95;;
31638;SDS011;18248;51.522;7.020;2023-01-29T13:12:35;86.75;;;43.38;;
31638;SDS011;18248;51.522;7.020;2023-01-29T13:15:35;77.70;;;37.78;;
31638;SDS011;18248;51.522;7.020;2023-01-29T13:21:43;79.38;;;39.08;;
31638;SDS011;18248;51.522;7.020;2023-01-29T13:24:42;78.07;;;38.88;;
31638;SDS011;18248;51.522;7.020;2023-01-29T13:27:41;80.95;;;39.30;;
31638;SDS011;18248;51.522;7.020;2023-01-29T13:30:42;80.10;;;38.53;;
31638;SDS011;18248;51.522;7.020;2023-01-29T13:33:41;78.75;;;38.88;;
31638;SDS011;18248;51.522;7.020;2023-01-29T13:36:55;76.45;;;38.92;;
31638;SDS011;18248;51.522;7.020;2023-01-29T13:39:56;82.70;;;40.38;;
31638;SDS011;18248;51.522;7.020;2023-01-29T13:42:56;78.65;;;39.08;;
31638;SDS011;18248;51.522;7.020;2023-01-29T13:45:56;75.30;;;37.78;;
31638;SDS011;18248;51.522;7.020;2023-01-29T13:48:55;77.90;;;38.22;;
31638;SDS011;18248;51.522;7.020;2023-01-29T13:51:57;76.13;;;38.25;;
31638;SDS011;18248;51.522;7.020;2023-01-29T13:58:16;83.60;;;39.22;;
31638;SDS011;18248;51.522;7.020;2023-01-29T14:04:45;84.40;;;40.78;;
31638;SDS011;18248;51.522;7.020;2023-01-29T14:10:42;76.35;;;36.72;;
31638;SDS011;18248;51.522;7.020;2023-01-29T14:13:42;74.45;;;37.35;;
31638;SDS011;18248;51.522;7.020;2023-01-29T14:16:42;77.95;;;37.97;;
31638;SDS011;18248;51.522;7.020;2023-01-29T14:29:35;76.47;;;37.03;;
31638;SDS011;18248;51.522;7.020;2023-01-29T14:32:41;72.18;;;36.92;;
31638;SDS011;18248;51.522;7.020;2023-01-29T14:35:48;81.00;;;39.13;;
31638;SDS011;18248;51.522;7.020;2023-01-29T14:38:49;74.47;;;35.30;;
31638;SDS011;18248;51.522;7.020;2023-01-29T14:41:50;69.50;;;35.78;;
31638;SDS011;18248;51.522;7.020;2023-01-29T14:47:52;78.45;;;36.17;;
31638;SDS011;18248;51.522;7.020;2023-01-29T14:50:52;73.07;;;36.55;;
31638;SDS011;18248;51.522;7.020;2023-01-29T14:53:57;77.65;;;38.50;;
31638;SDS011;18248;51.522;7.020;2023-01-29T14:57:14;81.03;;;38.50;;
31638;SDS011;18248;51.522;7.020;2023-01-29T15:00:24;73.72;;;36.53;;
31638;SDS011;18248;51.522;7.020;2023-01-29T15:03:42;77.72;;;38.17;;
31638;SDS011;18248;51.522;7.020;2023-01-29T15:06:47;79.80;;;38.05;;
31638;SDS011;18248;51.522;7.020;2023-01-29T15:09:56;79.00;;;39.08;;
31638;SDS011;18248;51.522;7.020;2023-01-29T15:13:18;80.00;;;38.55;;
31638;SDS011;18248;51.522;7.020;2023-01-29T15:20:23;84.00;;;37.80;;
31638;SDS011;18248;51.522;7.020;2023-01-29T15:23:30;76.18;;;37.88;;
31638;SDS011;18248;51.522;7.020;2023-01-29T15:26:30;84.15;;;40.45;;
31638;SDS011;18248;51.522;7.020;2023-01-29T15:29:30;78.30;;;38.08;;
31638;SDS011;18248;51.522;7.020;2023-01-29T15:32:35;80.95;;;38.15;;
31638;SDS011;18248;51.522;7.020;2023-01-29T15:35:35;80.00;;;37.10;;
31638;SDS011;18248;51.522;7.020;2023-01-29T15:38:35;79.15;;;37.42;;
31638;SDS011;18248;51.522;7.020;2023-01-29T15:41:34;73.85;;;37.80;;
31638;SDS011;18248;51.522;7.020;2023-01-29T15:44:33;74.45;;;37.38;;
31638;SDS011;18248;51.522;7.020;2023-01-29T15:47:31;72.95;;;37.92;;
31638;SDS011;18248;51.522;7.020;2023-01-29T15:50:31;79.00;;;38.33;;
31638;SDS011;18248;51.522;7.020;2023-01-29T15:53:36;70.80;;;35.95;;
31638;SDS011;18248;51.522;7.020;2023-01-29T15:56:40;77.75;;;37.33;;
31638;SDS011;18248;51.522;7.020;2023-01-29T15:59:42;76.57;;;35.95;;
31638;SDS011;18248;51.522;7.020;2023-01-29T16:02:42;79.30;;;37.65;;
31638;SDS011;18248;51.522;7.020;2023-01-29T16:05:40;77.85;;;37.30;;
31638;SDS011;18248;51.522;7.020;2023-01-29T16:08:39;74.22;;;35.40;;
31638;SDS011;18248;51.522;7.020;2023-01-29T16:11:41;77.97;;;37.88;;
31638;SDS011;18248;51.522;7.020;2023-01-29T16:14:40;77.38;;;37.63;;
31638;SDS011;18248;51.522;7.020;2023-01-29T16:17:40;73.40;;;35.50;;
31638;SDS011;18248;51.522;7.020;2023-01-29T16:20:39;72.72;;;34.45;;
31638;SDS011;18248;51.522;7.020;2023-01-29T16:23:43;74.88;;;35.47;;
31638;SDS011;18248;51.522;7.020;2023-01-29T16:26:45;72.95;;;34.47;;
31638;SDS011;18248;51.522;7.020;2023-01-29T16:29:46;79.03;;;35.58;;
31638;SDS011;18248;51.522;7.020;2023-01-29T16:32:44;71.70;;;33.22;;
31638;SDS011;18248;51.522;7.020;2023-01-29T16:35:48;74.05;;;33.40;;
31638;SDS011;18248;51.522;7.020;2023-01-29T16:38:50;76.03;;;35.22;;
31638;SDS011;18248;51.522;7.020;2023-01-29T16:45:25;65.60;;;30.65;;
31638;SDS011;18248;51.522;7.020;2023-01-29T16:48:26;65.80;;;30.83;;
31638;SDS011;18248;51.522;7.020;2023-01-29T16:51:29;61.85;;;30.30;;
31638;SDS011;18248;51.522;7.020;2023-01-29T16:54:33;64.75;;;30.90;;
31638;SDS011;18248;51.522;7.020;2023-01-29T16:57:39;64.60;;;30.70;;
31638;SDS011;18248;51.522;7.020;2023-01-29T17:00:48;62.63;;;31.20;;
31638;SDS011;18248;51.522;7.020;2023-01-29T17:03:59;57.55;;;28.73;;
31638;SDS011;18248;51.522;7.020;2023-01-29T17:06:58;67.97;;;30.17;;
31638;SDS011;18248;51.522;7.020;2023-01-29T17:10:00;59.55;;;28.55;;
31638;SDS011;18248;51.522;7.020;2023-01-29T17:13:02;62.85;;;28.52;;
31638;SDS011;18248;51.522;7.020;2023-01-29T17:19:43;58.75;;;28.83;;
31638;SDS011;18248;51.522;7.020;2023-01-29T17:22:42;57.53;;;28.63;;
31638;SDS011;18248;51.522;7.020;2023-01-29T17:25:42;58.25;;;27.58;;
31638;SDS011;18248;51.522;7.020;2023-01-29T17:28:41;58.33;;;29.13;;
31638;SDS011;18248;51.522;7.020;2023-01-29T17:31:41;55.95;;;28.20;;
31638;SDS011;18248;51.522;7.020;2023-01-29T17:34:40;56.58;;;29.13;;
31638;SDS011;18248;51.522;7.020;2023-01-29T17:37:39;56.05;;;28.35;;
31638;SDS011;18248;51.522;7.020;2023-01-29T17:40:40;59.35;;;28.98;;
31638;SDS011;18248;51.522;7.020;2023-01-29T17:43:42;63.05;;;30.02;;
31638;SDS011;18248;51.522;7.020;2023-01-29T17:46:41;59.30;;;30.38;;
31638;SDS011;18248;51.522;7.020;2023-01-29T17:49:40;61.60;;;30.60;;
31638;SDS011;18248;51.522;7.020;2023-01-29T17:52:39;68.15;;;30.95;;
31638;SDS011;18248;51.522;7.020;2023-01-29T17:55:37;69.65;;;32.28;;
31638;SDS011;18248;51.522;7.020;2023-01-29T17:58:36;64.05;;;32.17;;
31638;SDS011;18248;51.522;7.020;2023-01-29T18:01:34;70.10;;;31.85;;
31638;SDS011;18248;51.522;7.020;2023-01-29T18:04:33;62.72;;;31.75;;
31638;SDS011;18248;51.522;7.020;2023-01-29T18:07:31;63.08;;;31.30;;
31638;SDS011;18248;51.522;7.020;2023-01-29T18:10:30;57.13;;;29.70;;
31638;SDS011;18248;51.522;7.020;2023-01-29T18:13:28;60.20;;;30.23;;
31638;SDS011;18248;51.522;7.020;2023-01-29T18:16:27;62.63;;;30.70;;
31638;SDS011;18248;51.522;7.020;2023-01-29T18:19:28;59.40;;;30.00;;
31638;SDS011;18248;51.522;7.020;2023-01-29T18:22:28;62.33;;;32.28;;
31638;SDS011;18248;51.522;7.020;2023-01-29T18:25:26;62.20;;;29.50;;
31638;SDS011;18248;51.522;7.020;2023-01-29T18:28:25;59.78;;;29.00;;
31638;SDS011;18248;51.522;7.020;2023-01-29T18:31:23;55.00;;;29.40;;
31638;SDS011;18248;51.522;7.020;2023-01-29T18:34:22;58.75;;;28.77;;
31638;SDS011;18248;51.522;7.020;2023-01-29T18:37:20;58.15;;;29.58;;
31638;SDS011;18248;51.522;7.020;2023-01-29T18:40:19;60.50;;;29.13;;
31638;SDS011;18248;51.522;7.020;2023-01-29T18:43:17;58.72;;;29.50;;
31638;SDS011;18248;51.522;7.020;2023-01-29T18:46:16;53.20;;;27.92;;
31638;SDS011;18248;51.522;7.020;2023-01-29T18:49:14;57.42;;;27.83;;
31638;SDS011;18248;51.522;7.020;2023-01-29T18:52:14;55.85;;;27.42;;
31638;SDS011;18248;51.522;7.020;2023-01-29T18:55:13;66.55;;;29.75;;
31638;SDS011;18248;51.522;7.020;2023-01-29T18:58:12;55.03;;;27.88;;
31638;SDS011;18248;51.522;7.020;2023-01-29T19:01:10;59.00;;;28.13;;
31638;SDS011;18248;51.522;7.020;2023-01-29T19:04:09;63.58;;;27.90;;
31638;SDS011;18248;51.522;7.020;2023-01-29T19:07:08;62.78;;;29.27;;
31638;SDS011;18248;51.522;7.020;2023-01-29T19:10:07;64.70;;;29.58;;
31638;SDS011;18248;51.522;7.020;2023-01-29T19:13:10;58.17;;;29.67;;
31638;SDS011;18248;51.522;7.020;2023-01-29T19:16:09;55.40;;;27.35;;
31638;SDS011;18248;51.522;7.020;2023-01-29T19:19:09;58.65;;;28.83;;
31638;SDS011;18248;51.522;7.020;2023-01-29T19:22:08;54.90;;;28.17;;
31638;SDS011;18248;51.522;7.020;2023-01-29T19:25:07;53.35;;;27.65;;
31638;SDS011;18248;51.522;7.020;2023-01-29T19:28:06;56.72;;;28.52;;
31638;SDS011;18248;51.522;7.020;2023-01-29T19:31:04;54.97;;;28.13;;
31638;SDS011;18248;51.522;7.020;2023-01-29T19:34:03;57.17;;;28.02;;
31638;SDS011;18248;51.522;7.020;2023-01-29T19:37:02;56.50;;;29.45;;
31638;SDS011;18248;51.522;7.020;2023-01-29T19:40:00;60.97;;;30.30;;
31638;SDS011;18248;51.522;7.020;2023-01-29T19:43:02;55.28;;;29.05;;
31638;SDS011;18248;51.522;7.020;2023-01-29T19:46:00;61.80;;;30.67;;
31638;SDS011;18248;51.522;7.020;2023-01-29T19:48:59;60.15;;;30.20;;
31638;SDS011;18248;51.522;7.020;2023-01-29T19:52:00;61.63;;;31.77;;
31638;SDS011;18248;51.522;7.020;2023-01-29T19:54:59;64.82;;;32.33;;
31638;SDS011;18248;51.522;7.020;2023-01-29T19:57:59;66.40;;;32.97;;
31638;SDS011;18248;51.522;7.020;2023-01-29T20:01:01;82.35;;;35.30;;